EDFM/MHG METAR and TAF weather

Enter ICAO airport designator
Station Type Date Time Source
EDFM METAR 2018/07/16 18:50 UTC NOAA

EDFM 161850Z 09006KT 060V140 CAVOK 27/10 Q1011


Station Type Date Time Source
EDFM Decoded METAR 2018/07/16 18:50 UTC NOAA

Baden Wurttemberg, Neuostheim, Germany (EDFM) 49-28-21N 008-30-56E
Jul 16, 2018 - 02:50 PM EDT / 2018.07.16 1850 UTC
Wind: from the E (090 degrees) at 7 MPH (6 KT) (direction variable):0
Visibility: greater than 7 mile(s):0
Temperature: 80 F (27 C)
Dew Point: 50 F (10 C)
Relative Humidity: 34%
Pressure (altimeter): 29.85 in. Hg (1011 hPa)
ob: EDFM 161850Z 09006KT 060V140 CAVOK 27/10 Q1011
cycle: 19

Station Type Date Time Source
EDFM TAF 2012/03/06 06:30 UTC NOAA

TAF EDFM 060519Z 0606/0621 15004KT 9999 FEW040


Example: see airport list